createdAt,value
2017-07-24T00:00:51.508Z,1009.9
2017-07-24T00:01:54.443Z,1010.0
2017-07-24T00:02:57.109Z,1009.9
2017-07-24T00:03:59.682Z,1009.9
2017-07-24T00:05:02.263Z,1009.8
2017-07-24T00:06:04.813Z,1009.7
2017-07-24T00:07:06.342Z,1009.8
2017-07-24T00:08:07.844Z,1009.8
2017-07-24T00:09:09.332Z,1009.7
2017-07-24T00:10:11.948Z,1009.7
2017-07-24T00:11:13.405Z,1009.7
2017-07-24T00:12:15.973Z,1009.7
2017-07-24T00:13:17.477Z,1009.7
2017-07-24T00:14:18.972Z,1009.7
2017-07-24T00:15:21.923Z,1009.7
2017-07-24T00:16:23.414Z,1009.6
2017-07-24T00:17:24.947Z,1009.6
2017-07-24T00:18:27.524Z,1009.7
2017-07-24T00:19:30.072Z,1009.7
2017-07-24T00:20:30.480Z,1009.6
2017-07-24T00:21:33.095Z,1009.6
2017-07-24T00:22:35.635Z,1009.6
2017-07-24T00:23:37.619Z,1009.6
2017-07-24T00:24:39.153Z,1009.7
2017-07-24T00:25:42.159Z,1009.7
2017-07-24T00:26:43.683Z,1009.6
2017-07-24T00:27:45.189Z,1009.6
2017-07-24T00:28:47.798Z,1009.6
2017-07-24T00:29:50.396Z,1009.6
2017-07-24T00:30:53.021Z,1009.5
2017-07-24T00:31:55.702Z,1009.6
2017-07-24T00:32:58.903Z,1009.6
2017-07-24T00:34:01.500Z,1009.6
2017-07-24T00:35:04.103Z,1009.5
2017-07-24T00:36:05.598Z,1009.5
2017-07-24T00:37:07.065Z,1009.5
2017-07-24T00:38:09.711Z,1009.5
2017-07-24T00:39:11.235Z,1009.5
2017-07-24T00:40:13.870Z,1009.5
2017-07-24T00:41:16.786Z,1009.5
2017-07-24T00:42:18.275Z,1009.4
2017-07-24T00:43:20.822Z,1009.4
2017-07-24T00:44:24.098Z,1009.4
2017-07-24T00:45:26.742Z,1009.4
2017-07-24T00:46:29.356Z,1009.4
2017-07-24T00:47:30.877Z,1009.4
2017-07-24T00:48:32.418Z,1009.3
2017-07-24T00:49:33.958Z,1009.3
2017-07-24T00:50:36.905Z,1009.4
2017-07-24T00:51:39.523Z,1009.3
2017-07-24T00:52:41.047Z,1009.3
2017-07-24T00:53:42.585Z,1009.3
2017-07-24T00:54:45.174Z,1009.3
2017-07-24T00:55:47.805Z,1009.3
2017-07-24T00:56:50.405Z,1009.3
2017-07-24T00:57:52.994Z,1009.3
2017-07-24T00:58:55.607Z,1009.2
2017-07-24T00:59:58.200Z,1009.3
2017-07-24T01:00:58.611Z,1009.3
2017-07-24T01:02:00.152Z,1009.2
2017-07-24T01:03:02.764Z,1009.2
2017-07-24T01:04:05.366Z,1009.2
2017-07-24T01:05:07.887Z,1009.2
2017-07-24T01:06:09.373Z,1009.2
2017-07-24T01:07:11.978Z,1009.2
2017-07-24T01:08:14.578Z,1009.1
2017-07-24T01:09:16.045Z,1009.1
2017-07-24T01:10:18.763Z,1009.1
2017-07-24T01:11:21.301Z,1009.1
2017-07-24T01:12:23.854Z,1009.1
2017-07-24T01:13:26.466Z,1009.1
2017-07-24T01:14:29.317Z,1009.1
2017-07-24T01:15:32.266Z,1009.1
2017-07-24T01:16:33.761Z,1009.1
2017-07-24T01:17:35.244Z,1009.1
2017-07-24T01:18:37.876Z,1009.0
2017-07-24T01:19:40.858Z,1009.1
2017-07-24T01:20:42.412Z,1009.0
2017-07-24T01:21:45.006Z,1009.0
2017-07-24T01:22:48.453Z,1009.0
2017-07-24T01:23:51.366Z,1009.0
2017-07-24T01:24:53.963Z,1009.0
2017-07-24T01:25:56.887Z,1009.0
2017-07-24T01:26:59.458Z,1009.0
2017-07-24T01:28:01.934Z,1009.0
2017-07-24T01:29:03.426Z,1009.0
2017-07-24T01:30:06.365Z,1009.0
2017-07-24T01:31:08.914Z,1008.9
2017-07-24T01:32:11.518Z,1008.9
2017-07-24T01:33:14.118Z,1009.0
2017-07-24T01:34:17.084Z,1008.9
2017-07-24T01:35:19.650Z,1009.0
2017-07-24T01:36:21.156Z,1009.0
2017-07-24T01:37:22.653Z,1009.0
2017-07-24T01:38:24.175Z,1009.0
2017-07-24T01:39:26.819Z,1009.0
2017-07-24T01:40:30.308Z,1009.0
2017-07-24T01:41:32.878Z,1009.0
2017-07-24T01:42:35.822Z,1008.9
2017-07-24T01:43:38.747Z,1008.9
2017-07-24T01:44:41.311Z,1008.9
2017-07-24T01:45:42.814Z,1008.9
2017-07-24T01:46:44.308Z,1008.9
2017-07-24T01:47:45.832Z,1008.8
2017-07-24T01:48:47.336Z,1008.8
2017-07-24T01:49:48.993Z,1008.9
2017-07-24T01:50:52.073Z,1008.8
2017-07-24T01:51:55.056Z,1008.8
2017-07-24T01:52:57.558Z,1008.9
2017-07-24T01:54:00.506Z,1008.8
2017-07-24T01:55:02.019Z,1008.8
2017-07-24T01:56:03.533Z,1008.8
2017-07-24T01:57:05.042Z,1008.8
2017-07-24T01:58:07.602Z,1008.8
2017-07-24T01:59:10.180Z,1008.7
2017-07-24T02:00:12.802Z,1008.8
2017-07-24T02:01:15.396Z,1008.8
2017-07-24T02:02:17.998Z,1008.8
2017-07-24T02:03:20.605Z,1008.8
2017-07-24T02:04:23.140Z,1008.7
2017-07-24T02:05:23.534Z,1008.7
2017-07-24T02:06:26.081Z,1008.7
2017-07-24T02:07:28.721Z,1008.7
2017-07-24T02:08:30.226Z,1008.7
2017-07-24T02:09:33.199Z,1008.7
2017-07-24T02:10:35.796Z,1008.7
2017-07-24T02:11:37.328Z,1008.7
2017-07-24T02:12:40.363Z,1008.7
2017-07-24T02:13:41.907Z,1008.6
2017-07-24T02:14:44.490Z,1008.6
2017-07-24T02:15:44.890Z,1008.6
2017-07-24T02:16:47.460Z,1008.6
2017-07-24T02:17:48.991Z,1008.6
2017-07-24T02:18:51.649Z,1008.6
2017-07-24T02:19:54.932Z,1008.6
2017-07-24T02:20:56.435Z,1008.6
2017-07-24T02:21:59.002Z,1008.5
2017-07-24T02:23:02.141Z,1008.5
2017-07-24T02:24:04.758Z,1008.5
2017-07-24T02:25:07.323Z,1008.5
2017-07-24T02:26:09.929Z,1008.5
2017-07-24T02:27:12.855Z,1008.5
2017-07-24T02:28:14.402Z,1008.5
2017-07-24T02:29:15.926Z,1008.5
2017-07-24T02:30:19.185Z,1008.5
2017-07-24T02:31:21.773Z,1008.5
2017-07-24T02:32:24.343Z,1008.4
2017-07-24T02:33:26.948Z,1008.4
2017-07-24T02:34:29.560Z,1008.4
2017-07-24T02:35:32.129Z,1008.4
2017-07-24T02:36:33.651Z,1008.4
2017-07-24T02:37:36.258Z,1008.4
2017-07-24T02:38:37.889Z,1008.4
2017-07-24T02:39:40.419Z,1008.4
2017-07-24T02:40:42.974Z,1008.4
2017-07-24T02:41:45.624Z,1008.4
2017-07-24T02:42:48.465Z,1008.4
2017-07-24T02:43:50.012Z,1008.4
2017-07-24T02:44:52.623Z,1008.4
2017-07-24T02:45:54.117Z,1008.4
2017-07-24T02:46:56.735Z,1008.4
2017-07-24T02:47:59.294Z,1008.3
2017-07-24T02:49:01.866Z,1008.3
2017-07-24T02:50:04.428Z,1008.3
2017-07-24T02:51:07.441Z,1008.3
2017-07-24T02:52:10.074Z,1008.3
2017-07-24T02:53:12.707Z,1008.4
2017-07-24T02:54:15.591Z,1008.4
2017-07-24T02:55:18.182Z,1008.4
2017-07-24T02:56:20.769Z,1008.4
2017-07-24T02:57:23.731Z,1008.4
2017-07-24T02:58:26.443Z,1008.4
2017-07-24T02:59:29.056Z,1008.4
2017-07-24T03:00:30.552Z,1008.3
2017-07-24T03:01:32.100Z,1008.3
2017-07-24T03:02:33.616Z,1008.3
2017-07-24T03:03:35.123Z,1008.4
2017-07-24T03:04:37.706Z,1008.3
2017-07-24T03:05:38.147Z,1008.3
2017-07-24T03:06:40.764Z,1008.3
2017-07-24T03:07:43.381Z,1008.4
2017-07-24T03:08:44.905Z,1008.3
2017-07-24T03:09:47.476Z,1008.3
2017-07-24T03:10:48.972Z,1008.3
2017-07-24T03:11:51.450Z,1008.3
2017-07-24T03:12:52.941Z,1008.3
2017-07-24T03:13:55.534Z,1008.3
2017-07-24T03:14:58.468Z,1008.3
2017-07-24T03:15:59.933Z,1008.3
2017-07-24T03:17:01.445Z,1008.2
2017-07-24T03:18:04.021Z,1008.2
2017-07-24T03:19:05.487Z,1008.2
2017-07-24T03:20:08.713Z,1008.3
2017-07-24T03:21:10.155Z,1008.2
2017-07-24T03:22:13.067Z,1008.2
2017-07-24T03:23:14.566Z,1008.2
2017-07-24T03:24:17.922Z,1008.2
2017-07-24T03:25:19.436Z,1008.2
2017-07-24T03:26:22.363Z,1008.3
2017-07-24T03:27:25.344Z,1008.2
2017-07-24T03:28:26.873Z,1008.2
2017-07-24T03:29:28.435Z,1008.2
2017-07-24T03:30:31.396Z,1008.2
2017-07-24T03:31:34.775Z,1008.2
2017-07-24T03:32:37.689Z,1008.1
2017-07-24T03:33:40.747Z,1008.1
2017-07-24T03:34:42.239Z,1008.1
2017-07-24T03:35:44.877Z,1008.1
2017-07-24T03:36:47.410Z,1008.1
2017-07-24T03:37:50.376Z,1008.1
2017-07-24T03:38:52.993Z,1008.1
2017-07-24T03:39:54.494Z,1008.2
2017-07-24T03:40:57.053Z,1008.1
2017-07-24T03:41:59.646Z,1008.1
2017-07-24T03:43:02.243Z,1008.2
2017-07-24T03:44:04.869Z,1008.1
2017-07-24T03:45:07.436Z,1008.2
2017-07-24T03:46:10.056Z,1008.1
2017-07-24T03:47:11.615Z,1008.1
2017-07-24T03:48:14.201Z,1008.1
2017-07-24T03:49:15.692Z,1008.2
2017-07-24T03:50:17.191Z,1008.1
2017-07-24T03:51:18.654Z,1008.1
2017-07-24T03:52:21.245Z,1008.1
2017-07-24T03:53:22.729Z,1008.1
2017-07-24T03:54:25.382Z,1008.1
2017-07-24T03:55:27.988Z,1008.1
2017-07-24T03:56:31.063Z,1008.1
2017-07-24T03:57:32.636Z,1008.1
2017-07-24T03:58:34.130Z,1008.1
2017-07-24T03:59:37.093Z,1008.1
2017-07-24T04:00:38.603Z,1008.1
2017-07-24T04:01:41.509Z,1008.1
2017-07-24T04:02:44.095Z,1008.1
2017-07-24T04:03:47.164Z,1008.1
2017-07-24T04:04:49.797Z,1008.1
2017-07-24T04:05:51.362Z,1008.1
2017-07-24T04:06:53.974Z,1008.1
2017-07-24T04:07:56.588Z,1008.1
2017-07-24T04:08:58.103Z,1008.1
2017-07-24T04:09:59.632Z,1008.1
2017-07-24T04:11:02.273Z,1008.1
2017-07-24T04:12:04.934Z,1008.1
2017-07-24T04:13:08.307Z,1008.1
2017-07-24T04:14:11.707Z,1008.2
2017-07-24T04:15:14.952Z,1008.1
2017-07-24T04:16:17.579Z,1008.1
2017-07-24T04:17:20.193Z,1008.1
2017-07-24T04:18:21.725Z,1008.1
2017-07-24T04:19:24.360Z,1008.1
2017-07-24T04:20:26.935Z,1008.1
2017-07-24T04:21:28.435Z,1008.1
2017-07-24T04:22:31.034Z,1008.0
2017-07-24T04:23:34.019Z,1008.0
2017-07-24T04:24:36.687Z,1008.1
2017-07-24T04:25:38.184Z,1008.0
2017-07-24T04:26:39.690Z,1008.1
2017-07-24T04:27:41.209Z,1008.0
2017-07-24T04:28:42.740Z,1008.0
2017-07-24T04:29:45.253Z,1008.0
2017-07-24T04:30:46.755Z,1008.0
2017-07-24T04:31:48.257Z,1008.1
2017-07-24T04:32:49.789Z,1008.0
2017-07-24T04:33:52.711Z,1008.0
2017-07-24T04:34:55.398Z,1008.0
2017-07-24T04:35:56.917Z,1008.0
2017-07-24T04:36:59.884Z,1008.0
2017-07-24T04:38:01.406Z,1008.0
2017-07-24T04:39:02.996Z,1008.0
2017-07-24T04:40:05.743Z,1008.0
2017-07-24T04:41:08.346Z,1008.0
2017-07-24T04:42:10.993Z,1007.9
2017-07-24T04:43:12.473Z,1007.9
2017-07-24T04:44:15.813Z,1007.9
2017-07-24T04:45:18.432Z,1007.9
2017-07-24T04:46:21.039Z,1007.9
2017-07-24T04:47:22.513Z,1007.9
2017-07-24T04:48:25.067Z,1008.0
2017-07-24T04:49:26.595Z,1007.9
2017-07-24T04:50:29.177Z,1007.9
2017-07-24T04:51:30.691Z,1007.9
2017-07-24T04:52:33.650Z,1007.9
2017-07-24T04:53:36.581Z,1007.9
2017-07-24T04:54:38.075Z,1007.9
2017-07-24T04:55:39.553Z,1007.8
2017-07-24T04:56:41.080Z,1007.8
2017-07-24T04:57:43.645Z,1007.8
2017-07-24T04:58:46.188Z,1007.8
2017-07-24T04:59:49.526Z,1007.8
2017-07-24T05:00:52.722Z,1007.8
2017-07-24T05:01:55.321Z,1007.9
2017-07-24T05:02:56.826Z,1007.8
2017-07-24T05:03:59.434Z,1007.8
2017-07-24T05:05:02.017Z,1007.8
2017-07-24T05:06:03.528Z,1007.8
2017-07-24T05:07:06.130Z,1007.8
2017-07-24T05:08:09.273Z,1007.8
2017-07-24T05:09:10.814Z,1007.8
2017-07-24T05:10:13.815Z,1007.8
2017-07-24T05:11:16.785Z,1007.8
2017-07-24T05:12:19.367Z,1007.8
2017-07-24T05:13:21.949Z,1007.8
2017-07-24T05:14:25.002Z,1007.8
2017-07-24T05:15:27.631Z,1007.8
2017-07-24T05:16:30.528Z,1007.8
2017-07-24T05:17:33.119Z,1007.8
2017-07-24T05:18:36.072Z,1007.8
2017-07-24T05:19:38.706Z,1007.8
2017-07-24T05:20:41.660Z,1007.8
2017-07-24T05:21:43.168Z,1007.8
2017-07-24T05:22:45.755Z,1007.7
2017-07-24T05:23:47.291Z,1007.7
2017-07-24T05:24:48.813Z,1007.7
2017-07-24T05:25:51.751Z,1007.7
2017-07-24T05:26:54.327Z,1007.7
2017-07-24T05:27:56.960Z,1007.7
2017-07-24T05:28:59.506Z,1007.7
2017-07-24T05:30:02.163Z,1007.7
2017-07-24T05:31:04.702Z,1007.7
2017-07-24T05:32:07.690Z,1007.7
2017-07-24T05:33:10.246Z,1007.7
2017-07-24T05:34:12.786Z,1007.7
2017-07-24T05:35:14.273Z,1007.7
2017-07-24T05:36:17.228Z,1007.8
2017-07-24T05:37:19.728Z,1007.8
2017-07-24T05:38:22.732Z,1007.7
2017-07-24T05:39:25.292Z,1007.7
2017-07-24T05:40:27.918Z,1007.7
2017-07-24T05:41:30.476Z,1007.7
2017-07-24T05:42:33.036Z,1007.7
2017-07-24T05:43:35.423Z,1007.7
2017-07-24T05:44:38.036Z,1007.7
2017-07-24T05:45:39.521Z,1007.7
2017-07-24T05:46:41.006Z,1007.8
2017-07-24T05:47:42.555Z,1007.7
2017-07-24T05:48:45.584Z,1007.8
2017-07-24T05:49:48.495Z,1007.7
2017-07-24T05:50:50.011Z,1007.7
2017-07-24T05:51:52.617Z,1007.7
2017-07-24T05:52:55.248Z,1007.7
2017-07-24T05:53:57.850Z,1007.7
2017-07-24T05:54:59.342Z,1007.7
2017-07-24T05:56:00.847Z,1007.7
2017-07-24T05:57:02.348Z,1007.7
2017-07-24T05:58:03.858Z,1007.7
2017-07-24T05:59:06.486Z,1007.7
2017-07-24T06:00:09.106Z,1007.7
2017-07-24T06:01:10.537Z,1007.7
2017-07-24T06:02:13.105Z,1007.7
2017-07-24T06:03:15.748Z,1007.7
2017-07-24T06:04:17.290Z,1007.7
2017-07-24T06:05:18.816Z,1007.7
2017-07-24T06:06:20.341Z,1007.7
2017-07-24T06:07:22.950Z,1007.7
2017-07-24T06:08:25.564Z,1007.7
2017-07-24T06:09:28.151Z,1007.7
2017-07-24T06:10:30.777Z,1007.7
2017-07-24T06:11:33.316Z,1007.7
2017-07-24T06:12:35.932Z,1007.7
2017-07-24T06:13:37.475Z,1007.7
2017-07-24T06:14:39.051Z,1007.7
2017-07-24T06:15:40.610Z,1007.7
2017-07-24T06:16:42.182Z,1007.7
2017-07-24T06:17:43.701Z,1007.7
2017-07-24T06:18:46.306Z,1007.7
2017-07-24T06:19:49.219Z,1007.7
2017-07-24T06:20:51.791Z,1007.7
2017-07-24T06:21:54.351Z,1007.7
2017-07-24T06:22:57.338Z,1007.7
2017-07-24T06:23:59.977Z,1007.7
2017-07-24T06:25:02.648Z,1007.7
2017-07-24T06:26:05.250Z,1007.6
2017-07-24T06:27:07.927Z,1007.6
2017-07-24T06:28:09.424Z,1007.6
2017-07-24T06:29:12.375Z,1007.6
2017-07-24T06:30:15.356Z,1007.5
2017-07-24T06:31:17.074Z,1007.5
2017-07-24T06:32:18.887Z,1007.5
2017-07-24T06:33:20.611Z,1007.5
2017-07-24T06:34:22.364Z,1007.5
2017-07-24T06:35:24.023Z,1007.6
2017-07-24T06:36:26.724Z,1007.6
2017-07-24T06:37:28.414Z,1007.6
2017-07-24T06:38:32.353Z,1007.6
2017-07-24T06:39:33.894Z,1007.5
2017-07-24T06:40:35.457Z,1007.5
2017-07-24T06:41:38.090Z,1007.6
2017-07-24T06:42:41.087Z,1007.5
2017-07-24T06:43:42.707Z,1007.6
2017-07-24T06:44:44.370Z,1007.5
2017-07-24T06:45:46.075Z,1007.5
2017-07-24T06:46:47.700Z,1007.5
2017-07-24T06:47:50.370Z,1007.5
2017-07-24T06:48:52.031Z,1007.5
2017-07-24T06:49:53.745Z,1007.5
2017-07-24T06:50:55.425Z,1007.5
2017-07-24T06:51:58.568Z,1007.5
2017-07-24T06:53:00.179Z,1007.5
2017-07-24T06:54:03.249Z,1007.5
2017-07-24T06:55:06.017Z,1007.5
2017-07-24T06:56:07.778Z,1007.5
2017-07-24T06:57:09.422Z,1007.5
2017-07-24T06:58:11.152Z,1007.5
2017-07-24T06:59:12.879Z,1007.5
2017-07-24T07:00:15.678Z,1007.5
2017-07-24T07:01:17.338Z,1007.5
2017-07-24T07:02:18.914Z,1007.5
2017-07-24T07:03:20.595Z,1007.5
2017-07-24T07:04:22.187Z,1007.5
2017-07-24T07:05:23.830Z,1007.5
2017-07-24T07:06:25.513Z,1007.5
2017-07-24T07:07:29.935Z,1007.5
2017-07-24T07:08:31.521Z,1007.5
2017-07-24T07:09:33.091Z,1007.5
2017-07-24T07:10:34.731Z,1007.6
2017-07-24T07:11:36.333Z,1007.5
2017-07-24T07:12:37.992Z,1007.5
2017-07-24T07:13:39.693Z,1007.6
2017-07-24T07:14:41.289Z,1007.5
2017-07-24T07:15:42.888Z,1007.5
2017-07-24T07:16:44.471Z,1007.4
2017-07-24T07:17:46.998Z,1007.5
2017-07-24T07:18:48.600Z,1007.4
2017-07-24T07:19:50.293Z,1007.5
2017-07-24T07:20:51.947Z,1007.4
2017-07-24T07:21:53.578Z,1007.4
2017-07-24T07:22:55.207Z,1007.5
2017-07-24T07:23:56.807Z,1007.5
2017-07-24T07:24:58.391Z,1007.5
2017-07-24T07:26:00.052Z,1007.5
2017-07-24T07:27:01.637Z,1007.5
2017-07-24T07:28:04.073Z,1007.4
2017-07-24T07:29:05.682Z,1007.4
2017-07-24T07:30:07.324Z,1007.4
2017-07-24T07:31:08.913Z,1007.4
2017-07-24T07:32:10.509Z,1007.4
2017-07-24T07:33:12.091Z,1007.4
2017-07-24T07:34:13.708Z,1007.4
2017-07-24T07:35:15.338Z,1007.4
2017-07-24T07:36:17.044Z,1007.4
2017-07-24T07:37:18.668Z,1007.4
2017-07-24T07:38:20.395Z,1007.4
2017-07-24T07:39:21.989Z,1007.4
2017-07-24T07:40:23.590Z,1007.4
2017-07-24T07:41:26.153Z,1007.3
2017-07-24T07:42:27.695Z,1007.4
2017-07-24T07:43:29.160Z,1007.4
2017-07-24T07:44:31.738Z,1007.3
2017-07-24T07:45:33.269Z,1007.4
2017-07-24T07:46:35.827Z,1007.4
2017-07-24T07:47:38.407Z,1007.4
2017-07-24T07:48:39.927Z,1007.4
2017-07-24T07:49:41.403Z,1007.4
2017-07-24T07:50:43.958Z,1007.4
2017-07-24T07:51:46.580Z,1007.4
2017-07-24T07:52:48.069Z,1007.4
2017-07-24T07:53:49.562Z,1007.4
2017-07-24T07:54:52.150Z,1007.4
2017-07-24T07:55:53.645Z,1007.3
2017-07-24T07:56:55.169Z,1007.4
2017-07-24T07:57:57.734Z,1007.4
2017-07-24T07:59:00.288Z,1007.4
2017-07-24T08:00:01.753Z,1007.4
2017-07-24T08:01:03.286Z,1007.4
2017-07-24T08:02:04.762Z,1007.4
2017-07-24T08:03:07.317Z,1007.3
2017-07-24T08:04:08.788Z,1007.4
2017-07-24T08:05:10.284Z,1007.4
2017-07-24T08:06:13.224Z,1007.4
2017-07-24T08:07:15.799Z,1007.4
2017-07-24T08:08:17.293Z,1007.4
2017-07-24T08:09:18.856Z,1007.4
2017-07-24T08:10:20.379Z,1007.3
2017-07-24T08:11:21.882Z,1007.3
2017-07-24T08:12:23.445Z,1007.3
2017-07-24T08:13:24.966Z,1007.3
2017-07-24T08:14:26.469Z,1007.3
2017-07-24T08:15:27.965Z,1007.3
2017-07-24T08:16:30.610Z,1007.3
2017-07-24T08:17:33.595Z,1007.3
2017-07-24T08:18:36.568Z,1007.3
2017-07-24T08:19:38.145Z,1007.3
2017-07-24T08:20:39.657Z,1007.3
2017-07-24T08:21:41.196Z,1007.4
2017-07-24T08:22:43.868Z,1007.4
2017-07-24T08:23:46.483Z,1007.4
2017-07-24T08:24:48.103Z,1007.4
2017-07-24T08:25:49.743Z,1007.4
2017-07-24T08:26:51.275Z,1007.4
2017-07-24T08:27:52.844Z,1007.4
2017-07-24T08:28:54.462Z,1007.4
2017-07-24T08:29:57.085Z,1007.4
2017-07-24T08:30:58.598Z,1007.4
2017-07-24T08:32:01.233Z,1007.4
2017-07-24T08:33:02.778Z,1007.4
2017-07-24T08:34:05.734Z,1007.4
2017-07-24T08:35:07.291Z,1007.4
2017-07-24T08:36:09.865Z,1007.4
2017-07-24T08:37:11.560Z,1007.4
2017-07-24T08:38:13.336Z,1007.4
2017-07-24T08:39:15.092Z,1007.4
2017-07-24T08:40:17.968Z,1007.5
2017-07-24T08:41:19.803Z,1007.5
2017-07-24T08:42:21.440Z,1007.5
2017-07-24T08:43:23.037Z,1007.5
2017-07-24T08:44:24.625Z,1007.4
2017-07-24T08:45:26.188Z,1007.4
2017-07-24T08:46:29.454Z,1007.5
2017-07-24T08:47:32.586Z,1007.4
2017-07-24T08:48:35.435Z,1007.5
2017-07-24T08:49:37.047Z,1007.4
2017-07-24T08:50:38.682Z,1007.4
2017-07-24T08:51:40.270Z,1007.4
2017-07-24T08:52:41.940Z,1007.4
2017-07-24T08:53:43.491Z,1007.4
2017-07-24T08:54:45.207Z,1007.4
2017-07-24T08:55:48.291Z,1007.4
2017-07-24T08:56:51.282Z,1007.4
2017-07-24T08:57:53.160Z,1007.4
2017-07-24T08:58:54.871Z,1007.4
2017-07-24T08:59:57.478Z,1007.4
2017-07-24T09:01:00.536Z,1007.4
2017-07-24T09:02:03.277Z,1007.5
2017-07-24T09:03:04.888Z,1007.5
2017-07-24T09:04:07.620Z,1007.5
2017-07-24T09:05:09.278Z,1007.5
2017-07-24T09:06:10.855Z,1007.5
2017-07-24T09:07:13.559Z,1007.5
2017-07-24T09:08:16.277Z,1007.5
2017-07-24T09:09:17.928Z,1007.5
2017-07-24T09:10:20.698Z,1007.5
2017-07-24T09:11:23.349Z,1007.6
2017-07-24T09:12:24.958Z,1007.5
2017-07-24T09:13:27.656Z,1007.5
2017-07-24T09:14:29.284Z,1007.5
2017-07-24T09:15:30.933Z,1007.5
2017-07-24T09:16:33.649Z,1007.5
2017-07-24T09:17:36.757Z,1007.5
2017-07-24T09:18:40.372Z,1007.5
2017-07-24T09:19:41.989Z,1007.5
2017-07-24T09:20:44.997Z,1007.5
2017-07-24T09:21:47.614Z,1007.5
2017-07-24T09:22:50.633Z,1007.5
2017-07-24T09:23:53.277Z,1007.5
2017-07-24T09:24:56.304Z,1007.5
2017-07-24T09:25:59.051Z,1007.5
2017-07-24T09:27:00.654Z,1007.5
2017-07-24T09:28:02.306Z,1007.4
2017-07-24T09:29:03.900Z,1007.5
2017-07-24T09:30:05.564Z,1007.5
2017-07-24T09:31:07.135Z,1007.5
2017-07-24T09:32:08.743Z,1007.5
2017-07-24T09:33:12.176Z,1007.5
2017-07-24T09:34:13.734Z,1007.5
2017-07-24T09:35:15.316Z,1007.5
2017-07-24T09:36:18.049Z,1007.5
2017-07-24T09:37:21.063Z,1007.5
2017-07-24T09:38:23.928Z,1007.5
2017-07-24T09:39:26.937Z,1007.5
2017-07-24T09:40:29.956Z,1007.6
2017-07-24T09:41:33.089Z,1007.6
2017-07-24T09:42:34.713Z,1007.5
2017-07-24T09:43:36.277Z,1007.5
2017-07-24T09:44:39.036Z,1007.5
2017-07-24T09:45:42.470Z,1007.5
2017-07-24T09:46:45.174Z,1007.5
2017-07-24T09:47:47.850Z,1007.5
2017-07-24T09:48:49.487Z,1007.5
2017-07-24T09:49:52.124Z,1007.5
2017-07-24T09:50:53.684Z,1007.5
2017-07-24T09:51:55.294Z,1007.5
2017-07-24T09:52:58.005Z,1007.5
2017-07-24T09:54:00.737Z,1007.5
2017-07-24T09:55:02.321Z,1007.6
2017-07-24T09:56:04.959Z,1007.5
2017-07-24T09:57:07.916Z,1007.6
2017-07-24T09:58:09.481Z,1007.6
2017-07-24T09:59:11.083Z,1007.6
2017-07-24T10:00:13.775Z,1007.5
2017-07-24T10:01:15.373Z,1007.5
2017-07-24T10:02:17.918Z,1007.5
2017-07-24T10:03:19.498Z,1007.5
2017-07-24T10:04:22.201Z,1007.5
2017-07-24T10:05:25.241Z,1007.5
2017-07-24T10:06:27.888Z,1007.5
2017-07-24T10:07:29.523Z,1007.5
2017-07-24T10:08:32.559Z,1007.5
2017-07-24T10:09:35.914Z,1007.5
2017-07-24T10:10:38.564Z,1007.5
2017-07-24T10:11:40.006Z,1007.5
2017-07-24T10:12:41.466Z,1007.5
2017-07-24T10:13:42.922Z,1007.5
2017-07-24T10:14:44.387Z,1007.4
2017-07-24T10:15:45.835Z,1007.5
2017-07-24T10:16:47.297Z,1007.5
2017-07-24T10:17:48.769Z,1007.4
2017-07-24T10:18:50.222Z,1007.4
2017-07-24T10:19:51.678Z,1007.5
2017-07-24T10:20:53.155Z,1007.5
2017-07-24T10:21:56.089Z,1007.4
2017-07-24T10:22:57.555Z,1007.4
2017-07-24T10:23:59.037Z,1007.4
2017-07-24T10:25:00.499Z,1007.4
2017-07-24T10:26:01.940Z,1007.4
2017-07-24T10:27:03.468Z,1007.4
2017-07-24T10:28:04.909Z,1007.4
2017-07-24T10:29:06.377Z,1007.4
2017-07-24T10:30:07.842Z,1007.4
2017-07-24T10:31:09.288Z,1007.4
2017-07-24T10:32:10.764Z,1007.4
2017-07-24T10:33:12.211Z,1007.4
2017-07-24T10:34:13.644Z,1007.4
2017-07-24T10:35:15.090Z,1007.4
2017-07-24T10:36:16.504Z,1007.4
2017-07-24T10:37:17.919Z,1007.4
2017-07-24T10:38:19.334Z,1007.4
2017-07-24T10:39:20.742Z,1007.4
2017-07-24T10:40:22.163Z,1007.4
2017-07-24T10:41:23.571Z,1007.3
2017-07-24T10:42:24.991Z,1007.3
2017-07-24T10:43:26.412Z,1007.3
2017-07-24T10:44:27.840Z,1007.3
2017-07-24T10:45:29.289Z,1007.3
2017-07-24T10:46:30.696Z,1007.3
2017-07-24T10:47:32.154Z,1007.3
2017-07-24T10:48:33.564Z,1007.3
2017-07-24T10:49:34.980Z,1007.3
2017-07-24T10:50:36.389Z,1007.3
2017-07-24T10:51:37.803Z,1007.2
2017-07-24T10:52:39.216Z,1007.3
2017-07-24T10:53:40.625Z,1007.2
2017-07-24T10:54:42.037Z,1007.3
2017-07-24T10:55:43.468Z,1007.2
2017-07-24T10:56:44.878Z,1007.2
2017-07-24T10:57:46.291Z,1007.2
2017-07-24T10:58:47.707Z,1007.2
2017-07-24T10:59:49.119Z,1007.2
2017-07-24T11:00:52.404Z,1007.2
2017-07-24T11:01:54.846Z,1007.2
2017-07-24T11:02:56.463Z,1007.2
2017-07-24T11:03:59.414Z,1007.2
2017-07-24T11:05:00.829Z,1007.1
2017-07-24T11:06:02.248Z,1007.1
2017-07-24T11:07:03.664Z,1007.1
2017-07-24T11:08:05.085Z,1007.1
2017-07-24T11:09:08.229Z,1007.1
2017-07-24T11:10:10.689Z,1007.1
2017-07-24T11:11:13.872Z,1007.1
2017-07-24T11:12:15.289Z,1007.1
2017-07-24T11:13:16.704Z,1007.2
2017-07-24T11:14:18.246Z,1007.2
2017-07-24T11:15:19.790Z,1007.2
2017-07-24T11:16:22.418Z,1007.2
2017-07-24T11:17:24.147Z,1007.2
2017-07-24T11:18:25.686Z,1007.2
2017-07-24T11:19:28.244Z,1007.2
2017-07-24T11:20:30.874Z,1007.2
2017-07-24T11:21:32.366Z,1007.2
2017-07-24T11:22:33.893Z,1007.2
2017-07-24T11:23:35.373Z,1007.2
2017-07-24T11:24:37.987Z,1007.1
2017-07-24T11:25:40.657Z,1007.1
2017-07-24T11:26:42.266Z,1007.1
2017-07-24T11:27:43.948Z,1007.1
2017-07-24T11:28:46.566Z,1007.2
2017-07-24T11:29:48.150Z,1007.2
2017-07-24T11:30:50.742Z,1007.2
2017-07-24T11:31:52.231Z,1007.3
2017-07-24T11:32:53.785Z,1007.3
2017-07-24T11:33:55.420Z,1007.3
2017-07-24T11:34:58.103Z,1007.3
2017-07-24T11:35:59.773Z,1007.4
2017-07-24T11:37:01.333Z,1007.3
2017-07-24T11:38:02.927Z,1007.3
2017-07-24T11:39:04.581Z,1007.3
2017-07-24T11:40:07.595Z,1007.3
2017-07-24T11:41:09.534Z,1007.4
2017-07-24T11:42:11.485Z,1007.4
2017-07-24T11:43:13.302Z,1007.3
2017-07-24T11:44:15.049Z,1007.4
2017-07-24T11:45:16.701Z,1007.3
2017-07-24T11:46:19.310Z,1007.3
2017-07-24T11:47:21.850Z,1007.3
2017-07-24T11:48:23.461Z,1007.3
2017-07-24T11:49:25.031Z,1007.2
2017-07-24T11:50:26.572Z,1007.2
2017-07-24T11:51:30.083Z,1007.2
2017-07-24T11:52:32.922Z,1007.3
2017-07-24T11:53:35.648Z,1007.3
2017-07-24T11:54:38.278Z,1007.3
2017-07-24T11:55:40.975Z,1007.3
2017-07-24T11:56:42.675Z,1007.3
2017-07-24T11:57:45.500Z,1007.3
2017-07-24T11:58:46.276Z,1007.3
2017-07-24T11:59:49.383Z,1007.3
2017-07-24T12:00:51.180Z,1007.3
2017-07-24T12:01:54.300Z,1007.3
2017-07-24T12:02:55.875Z,1007.2
2017-07-24T12:03:57.458Z,1007.3
2017-07-24T12:05:00.274Z,1007.2
2017-07-24T12:06:01.966Z,1007.3
2017-07-24T12:07:03.614Z,1007.2
2017-07-24T12:08:05.172Z,1007.2
2017-07-24T12:09:06.666Z,1007.3
2017-07-24T12:10:09.598Z,1007.3
2017-07-24T12:11:11.025Z,1007.3
2017-07-24T12:12:12.510Z,1007.3
2017-07-24T12:13:13.985Z,1007.2
2017-07-24T12:14:15.430Z,1007.2
2017-07-24T12:15:16.941Z,1007.2
2017-07-24T12:16:19.493Z,1007.1
2017-07-24T12:17:20.989Z,1007.2
2017-07-24T12:18:22.510Z,1007.2
2017-07-24T12:19:23.986Z,1007.2
2017-07-24T12:20:26.518Z,1007.2
2017-07-24T12:21:28.028Z,1007.1
2017-07-24T12:22:29.491Z,1007.1
2017-07-24T12:23:31.012Z,1007.1
2017-07-24T12:24:32.670Z,1007.1
2017-07-24T12:25:34.667Z,1007.1
2017-07-24T12:26:36.524Z,1007.1
2017-07-24T12:27:38.228Z,1007.1
2017-07-24T12:28:40.669Z,1007.1
2017-07-24T12:29:42.442Z,1007.1
2017-07-24T12:30:44.103Z,1007.1
2017-07-24T12:31:45.789Z,1007.1
2017-07-24T12:32:47.514Z,1007.2
2017-07-24T12:33:49.174Z,1007.2
2017-07-24T12:34:50.853Z,1007.2
2017-07-24T12:35:52.556Z,1007.2
2017-07-24T12:36:55.603Z,1007.2
2017-07-24T12:37:57.171Z,1007.2
2017-07-24T12:38:59.562Z,1007.3
2017-07-24T12:40:01.088Z,1007.2
2017-07-24T12:41:02.633Z,1007.3
2017-07-24T12:42:04.126Z,1007.2
2017-07-24T12:43:06.909Z,1007.2
2017-07-24T12:44:08.569Z,1007.2
2017-07-24T12:45:10.208Z,1007.2
2017-07-24T12:46:11.805Z,1007.2
2017-07-24T12:47:13.449Z,1007.2
2017-07-24T12:48:15.099Z,1007.2
2017-07-24T12:49:16.736Z,1007.1
2017-07-24T12:50:18.392Z,1007.1
2017-07-24T12:51:20.032Z,1007.1
2017-07-24T12:52:21.683Z,1007.1
2017-07-24T12:53:23.412Z,1007.1
2017-07-24T12:54:25.186Z,1007.2
2017-07-24T12:55:26.745Z,1007.1